Time;durP1;ratioP1;P1;durP2;ratioP2;P2;SDS_P1;SDS_P2;PMS_P1;PMS_P2;Temp;Humidity;BMP_temperature;BMP_pressure;BME280_temperature;BME280_humidity;BME280_pressure;Samples;Min_cycle;Max_cycle;Signal;HPM_P1;HPM_P2
2022/03/06 00:01:03;;;;;;;6.53;4.83;;;2.60;99.90;;;;;;4925854;29;20051;-73
2022/03/06 00:03:29;;;;;;;6.83;5.20;;;2.60;99.90;;;;;;4925241;29;20496;-73
2022/03/06 00:05:54;;;;;;;5.47;4.97;;;2.60;99.90;;;;;;4924324;29;20050;-74
2022/03/06 00:08:20;;;;;;;9.40;4.83;;;2.60;99.90;;;;;;4925703;29;20538;-74
2022/03/06 00:10:46;;;;;;;9.43;5.47;;;2.60;99.90;;;;;;4940281;29;20082;-74
2022/03/06 00:13:14;;;;;;;5.93;4.53;;;2.60;99.90;;;;;;4940387;29;20052;-73
2022/03/06 00:15:40;;;;;;;6.73;5.70;;;2.70;99.90;;;;;;4924701;29;20048;-73
2022/03/06 00:18:06;;;;;;;4.73;4.13;;;2.70;99.90;;;;;;4925024;29;20043;-73
2022/03/06 00:20:31;;;;;;;4.80;4.40;;;2.70;99.90;;;;;;4924313;29;20067;-73
2022/03/06 00:22:57;;;;;;;5.20;4.70;;;2.70;99.90;;;;;;4924494;29;20090;-73
2022/03/06 00:25:23;;;;;;;6.00;5.40;;;2.70;99.90;;;;;;4925853;29;20067;-74
2022/03/06 00:27:48;;;;;;;4.33;4.00;;;2.70;99.90;;;;;;4925428;29;20043;-74
2022/03/06 00:30:14;;;;;;;10.20;5.07;;;2.70;99.90;;;;;;4926224;29;20098;-73
2022/03/06 00:32:39;;;;;;;7.97;4.43;;;2.70;99.90;;;;;;4925282;29;20051;-74
2022/03/06 00:35:07;;;;;;;13.17;5.83;;;2.70;99.90;;;;;;4924313;29;20051;-74
2022/03/06 00:37:32;;;;;;;5.47;4.60;;;2.70;99.90;;;;;;4926004;29;20051;-73
2022/03/06 00:39:58;;;;;;;5.83;5.37;;;2.70;99.90;;;;;;4925319;29;20067;-74
2022/03/06 00:42:23;;;;;;;5.73;5.33;;;2.70;99.90;;;;;;4924134;29;20052;-74
2022/03/06 00:44:49;;;;;;;7.93;7.00;;;2.60;99.90;;;;;;4914779;29;20051;-73
2022/03/06 00:47:14;;;;;;;6.70;6.13;;;2.60;99.90;;;;;;4906251;29;20626;-74
2022/03/06 00:49:40;;;;;;;6.83;5.37;;;2.60;99.90;;;;;;4911207;29;20040;-73
2022/03/06 00:52:06;;;;;;;9.80;4.93;;;2.60;99.90;;;;;;4924019;29;20142;-74
2022/03/06 00:54:31;;;;;;;5.93;5.30;;;2.60;99.90;;;;;;4924218;29;20043;-73
2022/03/06 00:56:57;;;;;;;4.23;3.93;;;2.60;99.90;;;;;;4924797;29;20043;-73
2022/03/06 00:59:22;;;;;;;6.33;5.73;;;2.60;99.90;;;;;;4924109;29;20071;-73
2022/03/06 01:01:48;;;;;;;5.17;4.70;;;2.60;99.90;;;;;;4925428;29;20048;-74
2022/03/06 01:04:14;;;;;;;17.53;5.93;;;2.60;99.90;;;;;;4923877;29;20114;-74
2022/03/06 01:06:39;;;;;;;12.07;6.97;;;2.60;99.90;;;;;;4923776;29;20159;-73
2022/03/06 01:09:05;;;;;;;6.27;5.43;;;2.70;99.90;;;;;;4925047;29;20050;-73
2022/03/06 01:11:33;;;;;;;9.63;7.20;;;2.70;99.90;;;;;;4923491;29;20048;-73
2022/03/06 01:13:59;;;;;;;14.33;9.13;;;2.70;99.90;;;;;;4923139;29;20085;-73
2022/03/06 01:16:24;;;;;;;5.07;4.57;;;2.70;99.90;;;;;;4923824;29;20059;-73
2022/03/06 01:18:50;;;;;;;4.97;4.50;;;2.70;99.90;;;;;;4924164;29;20087;-74
2022/03/06 01:21:15;;;;;;;8.80;6.60;;;2.70;99.90;;;;;;4924302;29;20127;-74
2022/03/06 01:23:41;;;;;;;8.10;6.87;;;2.80;99.90;;;;;;4925498;29;20149;-74
2022/03/06 01:26:07;;;;;;;7.50;5.97;;;2.80;99.90;;;;;;4923376;29;20047;-73
2022/03/06 01:28:32;;;;;;;9.53;8.00;;;2.80;99.90;;;;;;4923930;29;20562;-73
2022/03/06 01:30:58;;;;;;;9.13;6.70;;;2.80;99.90;;;;;;4924906;29;20044;-74
2022/03/06 01:33:23;;;;;;;11.90;5.83;;;2.80;99.90;;;;;;4923112;29;20075;-74
2022/03/06 01:35:49;;;;;;;8.87;7.67;;;2.80;99.90;;;;;;4924788;29;20222;-73
2022/03/06 01:38:15;;;;;;;10.40;5.57;;;2.80;99.90;;;;;;4925113;29;20087;-74
2022/03/06 01:40:41;;;;;;;3.67;3.47;;;2.80;99.90;;;;;;4924289;29;20090;-73
2022/03/06 01:43:06;;;;;;;8.20;7.03;;;2.80;99.90;;;;;;4924454;29;20127;-74
2022/03/06 01:45:32;;;;;;;9.57;6.23;;;2.80;99.90;;;;;;4924726;29;20075;-74
2022/03/06 01:47:58;;;;;;;9.73;4.67;;;2.80;99.90;;;;;;4924132;29;20522;-74
2022/03/06 01:50:32;;;;;;;5.60;5.03;;;2.80;99.90;;;;;;4923538;29;20122;-74
2022/03/06 01:53:01;;;;;;;5.13;4.60;;;2.80;99.90;;;;;;4923570;29;20123;-73
2022/03/06 01:55:28;;;;;;;4.53;3.97;;;2.80;99.90;;;;;;4955642;28;20106;-74
2022/03/06 01:57:58;;;;;;;7.60;3.90;;;2.80;99.90;;;;;;4926864;28;20040;-74
2022/03/06 02:00:27;;;;;;;5.93;4.10;;;2.80;99.90;;;;;;4928295;29;20070;-74
2022/03/06 02:02:54;;;;;;;4.53;4.20;;;2.90;99.90;;;;;;4925902;29;20090;-73
2022/03/06 02:05:20;;;;;;;11.20;5.23;;;2.80;99.90;;;;;;4927930;28;20510;-74
2022/03/06 02:07:45;;;;;;;5.40;4.97;;;2.90;99.90;;;;;;4926421;29;20055;-74
2022/03/06 02:10:14;;;;;;;5.53;5.00;;;2.90;99.90;;;;;;4955637;28;20062;-74
2022/03/06 02:12:41;;;;;;;11.37;5.80;;;2.90;99.90;;;;;;4927673;29;20056;-74
2022/03/06 02:15:09;;;;;;;6.67;5.03;;;2.90;99.90;;;;;;4926234;29;20047;-73
2022/03/06 02:17:37;;;;;;;8.07;5.63;;;2.90;99.90;;;;;;4927283;29;20118;-74
2022/03/06 02:20:04;;;;;;;6.03;4.93;;;2.90;99.90;;;;;;4927842;29;20051;-73
2022/03/06 02:22:32;;;;;;;7.97;5.23;;;2.90;99.90;;;;;;4927721;29;20036;-74
2022/03/06 02:25:00;;;;;;;6.80;5.23;;;2.90;99.90;;;;;;4927711;29;20048;-73
2022/03/06 02:27:26;;;;;;;6.30;5.70;;;2.90;99.90;;;;;;4925912;29;20051;-74
2022/03/06 02:29:52;;;;;;;9.77;5.70;;;2.90;99.90;;;;;;4927595;29;20066;-74
2022/03/06 02:32:20;;;;;;;5.97;3.73;;;2.90;99.90;;;;;;4926800;29;20052;-74
2022/03/06 02:34:48;;;;;;;11.20;6.07;;;2.90;99.90;;;;;;4927292;29;20051;-74
2022/03/06 02:37:16;;;;;;;6.70;5.73;;;2.90;99.90;;;;;;4928309;29;20088;-73
2022/03/06 02:39:45;;;;;;;3.67;3.37;;;2.90;99.90;;;;;;4927450;29;20044;-73
2022/03/06 02:42:23;;;;;;;9.00;4.97;;;2.90;99.90;;;;;;4928242;29;20047;-73
2022/03/06 02:44:49;;;;;;;6.27;3.73;;;2.90;99.90;;;;;;4925511;29;20054;-74
2022/03/06 02:47:14;;;;;;;4.57;3.33;;;2.90;99.90;;;;;;4957439;28;20044;-73
2022/03/06 02:49:40;;;;;;;5.83;2.93;;;2.90;99.90;;;;;;4927591;28;20091;-73
2022/03/06 02:52:08;;;;;;;4.33;3.93;;;2.90;99.90;;;;;;4957981;28;20091;-73
2022/03/06 02:54:33;;;;;;;3.67;3.37;;;2.90;99.90;;;;;;4927260;28;20048;-73
2022/03/06 02:56:59;;;;;;;3.10;2.80;;;2.90;99.90;;;;;;4926852;29;20047;-73
2022/03/06 02:59:24;;;;;;;8.77;4.23;;;2.90;99.90;;;;;;4926598;29;20032;-73
2022/03/06 03:01:50;;;;;;;4.83;4.33;;;2.90;99.90;;;;;;4926976;29;20525;-73
2022/03/06 03:04:16;;;;;;;5.70;3.97;;;2.90;99.90;;;;;;4926415;29;20083;-74
2022/03/06 03:06:41;;;;;;;6.00;3.37;;;2.90;99.90;;;;;;4926044;29;20048;-73
2022/03/06 03:09:08;;;;;;;3.57;3.30;;;2.90;99.90;;;;;;4926520;29;20107;-74
2022/03/06 03:11:34;;;;;;;2.90;2.70;;;2.90;99.90;;;;;;4941590;28;20047;-73
2022/03/06 03:14:01;;;;;;;3.40;3.13;;;2.90;99.90;;;;;;4925377;29;20043;-73
2022/03/06 03:16:26;;;;;;;4.33;4.03;;;2.90;99.90;;;;;;4925957;29;20509;-73
2022/03/06 03:18:52;;;;;;;2.90;2.70;;;2.90;99.90;;;;;;4924353;29;20060;-73
2022/03/06 03:21:17;;;;;;;2.80;2.60;;;2.90;99.90;;;;;;4926959;29;20079;-74
2022/03/06 03:23:43;;;;;;;3.60;3.30;;;2.80;99.90;;;;;;4926898;29;20055;-73
2022/03/06 03:26:09;;;;;;;2.80;2.63;;;2.80;99.90;;;;;;4926788;29;20417;-73
2022/03/06 03:28:34;;;;;;;5.00;3.90;;;2.80;99.90;;;;;;4926843;29;20047;-73
2022/03/06 03:31:00;;;;;;;3.17;2.80;;;2.80;99.90;;;;;;4924747;29;20415;-74
2022/03/06 03:33:26;;;;;;;14.57;3.93;;;2.80;99.90;;;;;;4925533;29;20044;-74
2022/03/06 03:35:51;;;;;;;2.73;2.53;;;2.80;99.90;;;;;;4926324;29;20099;-73
2022/03/06 03:38:17;;;;;;;3.83;3.57;;;2.80;99.90;;;;;;4926597;29;20454;-74
2022/03/06 03:40:43;;;;;;;1.77;1.47;;;2.80;99.90;;;;;;4926792;29;20510;-74
2022/03/06 03:43:08;;;;;;;8.77;2.07;;;2.80;99.90;;;;;;4925911;29;20471;-74
2022/03/06 03:45:34;;;;;;;4.50;3.27;;;2.90;99.90;;;;;;4911524;29;20048;-73
2022/03/06 03:47:59;;;;;;;2.33;1.87;;;2.80;99.90;;;;;;4906220;29;20051;-74
2022/03/06 03:50:25;;;;;;;6.63;3.10;;;2.80;99.90;;;;;;4937762;29;20084;-74
2022/03/06 03:52:51;;;;;;;2.23;2.10;;;2.90;99.90;;;;;;4905656;29;20495;-73
2022/03/06 03:55:17;;;;;;;2.07;1.97;;;2.90;99.90;;;;;;4937875;29;20044;-74
2022/03/06 03:57:42;;;;;;;1.83;1.47;;;2.90;99.90;;;;;;4907267;29;20050;-74
2022/03/06 04:00:09;;;;;;;4.20;3.40;;;2.80;99.90;;;;;;4906809;29;20075;-73
2022/03/06 04:02:34;;;;;;;4.03;2.47;;;2.90;99.90;;;;;;4906066;29;20143;-74
2022/03/06 04:05:00;;;;;;;4.70;2.83;;;2.90;99.90;;;;;;4907086;29;20131;-74
2022/03/06 04:07:26;;;;;;;2.37;2.20;;;2.90;99.90;;;;;;4923816;29;20058;-74
2022/03/06 04:09:51;;;;;;;1.93;1.80;;;2.90;99.90;;;;;;4924218;29;20089;-74
2022/03/06 04:12:17;;;;;;;2.30;2.20;;;2.90;99.90;;;;;;4925825;29;20064;-74
2022/03/06 04:14:42;;;;;;;3.43;2.53;;;2.80;99.90;;;;;;4926503;29;20499;-74
2022/03/06 04:17:08;;;;;;;3.93;2.80;;;2.90;99.90;;;;;;4924213;29;20495;-74
2022/03/06 04:19:34;;;;;;;2.93;2.50;;;2.90;99.90;;;;;;4925144;29;20530;-74
2022/03/06 04:21:59;;;;;;;2.27;2.13;;;2.90;99.90;;;;;;4925535;29;20038;-73
2022/03/06 04:24:26;;;;;;;3.70;3.27;;;2.90;99.90;;;;;;4925846;29;20127;-74
2022/03/06 04:26:52;;;;;;;3.23;3.03;;;2.90;99.90;;;;;;4925246;29;20106;-73
2022/03/06 04:29:17;;;;;;;3.73;3.43;;;2.90;99.90;;;;;;4925559;29;20043;-74
2022/03/06 04:31:43;;;;;;;24.30;3.03;;;2.90;99.90;;;;;;4925157;29;20055;-74
2022/03/06 04:34:08;;;;;;;3.03;2.10;;;2.90;99.90;;;;;;4925004;29;20126;-74
2022/03/06 04:36:34;;;;;;;4.73;3.67;;;2.90;99.90;;;;;;4925068;29;20051;-73
2022/03/06 04:38:59;;;;;;;3.63;3.20;;;2.90;99.90;;;;;;4925491;29;20051;-73
2022/03/06 04:41:25;;;;;;;3.07;2.67;;;2.90;99.90;;;;;;4925594;29;20208;-73
2022/03/06 04:43:52;;;;;;;3.93;3.60;;;2.90;99.90;;;;;;4924843;29;20087;-74
2022/03/06 04:46:18;;;;;;;3.83;3.43;;;2.90;99.90;;;;;;4956107;28;20062;-74
2022/03/06 04:48:44;;;;;;;4.40;3.83;;;2.90;99.90;;;;;;4955612;28;20598;-74
2022/03/06 04:51:09;;;;;;;8.27;4.27;;;2.90;99.90;;;;;;4956319;28;20130;-73
2022/03/06 04:53:36;;;;;;;3.63;3.30;;;2.90;99.90;;;;;;4925450;29;20506;-74
2022/03/06 04:56:03;;;;;;;7.43;3.57;;;2.90;99.90;;;;;;4925144;29;20046;-74
2022/03/06 04:58:28;;;;;;;3.80;2.40;;;2.90;99.90;;;;;;4925451;28;20054;-74
2022/03/06 05:00:54;;;;;;;3.03;2.80;;;2.90;99.90;;;;;;4955292;28;20043;-74
2022/03/06 05:03:20;;;;;;;3.40;2.40;;;2.90;99.90;;;;;;4955294;28;20180;-74
2022/03/06 05:05:46;;;;;;;5.50;5.00;;;2.90;99.90;;;;;;4925157;29;20078;-74
2022/03/06 05:08:11;;;;;;;5.10;3.03;;;2.90;99.90;;;;;;4925491;29;20126;-74
2022/03/06 05:10:37;;;;;;;1.80;1.70;;;2.90;99.90;;;;;;4923861;29;20058;-73
2022/03/06 05:13:03;;;;;;;3.90;3.50;;;2.90;99.90;;;;;;4924664;29;20113;-74
2022/03/06 05:15:29;;;;;;;2.73;2.53;;;2.90;99.90;;;;;;4925222;29;20070;-74
2022/03/06 05:17:54;;;;;;;2.93;2.63;;;2.90;99.90;;;;;;4922498;29;20044;-74
2022/03/06 05:20:20;;;;;;;3.27;2.93;;;2.90;99.90;;;;;;4924961;29;20043;-74
2022/03/06 05:22:46;;;;;;;2.20;2.00;;;2.90;99.90;;;;;;4925176;29;20036;-74
2022/03/06 05:25:12;;;;;;;2.33;2.00;;;2.90;99.90;;;;;;4925668;29;20047;-74
2022/03/06 05:27:38;;;;;;;4.27;2.30;;;2.90;99.90;;;;;;4923940;29;20051;-74
2022/03/06 05:30:06;;;;;;;3.03;2.83;;;2.90;99.90;;;;;;4923617;29;20044;-74
2022/03/06 05:32:32;;;;;;;2.33;1.87;;;2.90;99.90;;;;;;4925959;29;20530;-74
2022/03/06 05:34:57;;;;;;;3.03;2.73;;;2.90;99.90;;;;;;4928245;29;20043;-73
2022/03/06 05:37:23;;;;;;;5.40;3.17;;;2.90;99.90;;;;;;4927804;29;20046;-74
2022/03/06 05:39:48;;;;;;;3.37;3.00;;;2.90;99.90;;;;;;4927197;29;20058;-74
2022/03/06 05:42:14;;;;;;;2.17;2.07;;;2.90;99.90;;;;;;4927733;29;20110;-74
2022/03/06 05:44:41;;;;;;;2.83;2.47;;;2.90;99.90;;;;;;4943020;29;20044;-74
2022/03/06 05:47:06;;;;;;;8.33;2.30;;;2.90;99.90;;;;;;4927601;29;20054;-74
2022/03/06 05:49:32;;;;;;;3.20;2.53;;;2.90;99.90;;;;;;4928462;29;20120;-74
2022/03/06 05:51:58;;;;;;;6.97;2.07;;;2.90;99.90;;;;;;4928064;28;20052;-74
2022/03/06 05:54:23;;;;;;;2.50;2.30;;;2.90;99.90;;;;;;4928343;28;20499;-74
2022/03/06 05:56:49;;;;;;;3.87;2.37;;;2.90;99.90;;;;;;4959085;28;20047;-74
2022/03/06 05:59:15;;;;;;;2.07;1.77;;;2.80;99.90;;;;;;4928050;28;20475;-74
2022/03/06 06:01:40;;;;;;;2.43;2.27;;;2.90;99.90;;;;;;4927603;29;20118;-74
2022/03/06 06:04:06;;;;;;;6.80;1.60;;;2.90;99.90;;;;;;4926844;29;20134;-74
2022/03/06 06:06:32;;;;;;;1.63;1.53;;;2.90;99.90;;;;;;4928020;29;20047;-73
2022/03/06 06:08:57;;;;;;;0.80;0.67;;;2.90;99.90;;;;;;4927929;29;20048;-73
2022/03/06 06:11:23;;;;;;;0.90;0.90;;;2.90;99.90;;;;;;4926271;29;20047;-74
2022/03/06 06:13:49;;;;;;;2.77;1.17;;;2.80;99.90;;;;;;4926713;29;20135;-74
2022/03/06 06:16:15;;;;;;;0.80;0.80;;;2.90;99.90;;;;;;4928498;29;20040;-75
2022/03/06 06:18:44;;;;;;;0.47;0.47;;;2.90;99.90;;;;;;4927331;29;20060;-74
2022/03/06 06:21:11;;;;;;;1.50;0.83;;;2.80;99.90;;;;;;4928421;29;20083;-73
2022/03/06 06:23:36;;;;;;;1.80;1.70;;;2.80;99.90;;;;;;4928189;29;20391;-74
2022/03/06 06:26:02;;;;;;;0.87;0.87;;;2.90;99.90;;;;;;4925800;29;20098;-74
2022/03/06 06:28:28;;;;;;;1.13;0.80;;;2.90;99.90;;;;;;4927834;29;20058;-74
2022/03/06 06:30:53;;;;;;;0.90;0.83;;;2.90;99.90;;;;;;4927591;29;20054;-73
2022/03/06 06:33:19;;;;;;;2.27;1.57;;;2.90;99.90;;;;;;4927016;29;20052;-74
2022/03/06 06:35:44;;;;;;;5.00;1.13;;;2.80;99.90;;;;;;4927426;29;20039;-74
2022/03/06 06:38:10;;;;;;;1.47;1.37;;;2.90;99.90;;;;;;4927855;29;20050;-74
2022/03/06 06:40:36;;;;;;;0.73;0.60;;;2.90;99.90;;;;;;4925824;29;20048;-73
2022/03/06 06:43:02;;;;;;;4.03;1.20;;;2.90;99.90;;;;;;4925171;29;20054;-73
2022/03/06 06:45:28;;;;;;;5.13;1.60;;;2.90;99.90;;;;;;4926751;29;20047;-74
2022/03/06 06:47:53;;;;;;;2.13;1.27;;;2.90;99.90;;;;;;4925154;29;20050;-74
2022/03/06 06:50:19;;;;;;;0.50;0.50;;;2.90;99.90;;;;;;4927282;28;20094;-74
2022/03/06 06:52:45;;;;;;;0.80;0.80;;;2.80;99.90;;;;;;4926812;29;20178;-74
2022/03/06 06:55:10;;;;;;;6.73;1.50;;;2.80;99.90;;;;;;4927476;29;20833;-73
2022/03/06 06:57:36;;;;;;;0.50;0.50;;;2.80;99.90;;;;;;4957660;28;20043;-74
2022/03/06 07:00:03;;;;;;;1.03;1.03;;;2.80;99.90;;;;;;4925687;29;20451;-73
2022/03/06 07:02:29;;;;;;;0.67;0.67;;;2.70;99.90;;;;;;4925320;29;20075;-74
2022/03/06 07:04:54;;;;;;;2.73;0.63;;;2.70;99.90;;;;;;4925621;29;20761;-74
2022/03/06 07:07:20;;;;;;;0.50;0.50;;;2.70;99.90;;;;;;4925777;29;20087;-73
2022/03/06 07:09:45;;;;;;;0.97;0.83;;;2.60;99.90;;;;;;4926569;29;20134;-74
2022/03/06 07:12:11;;;;;;;1.13;0.90;;;2.60;99.90;;;;;;4925371;29;20102;-74
2022/03/06 07:14:37;;;;;;;0.57;0.57;;;2.60;99.90;;;;;;4926450;29;20079;-74
2022/03/06 07:17:03;;;;;;;0.93;0.93;;;2.60;99.90;;;;;;4925511;29;20050;-74
2022/03/06 07:19:29;;;;;;;0.77;0.73;;;2.60;99.90;;;;;;4925988;29;20046;-74
2022/03/06 07:21:54;;;;;;;0.80;0.80;;;2.60;99.90;;;;;;4926166;29;20039;-73
2022/03/06 07:24:20;;;;;;;1.10;1.10;;;2.60;99.90;;;;;;4926352;29;20054;-73
2022/03/06 07:26:46;;;;;;;4.17;1.27;;;2.50;99.90;;;;;;4926048;29;20181;-74
2022/03/06 07:29:11;;;;;;;0.90;0.90;;;2.50;99.90;;;;;;4926720;29;20047;-74
2022/03/06 07:31:37;;;;;;;0.73;0.73;;;2.60;99.90;;;;;;4923817;29;20478;-74
2022/03/06 07:34:02;;;;;;;2.40;1.43;;;2.50;99.90;;;;;;4926229;29;20043;-74
2022/03/06 07:36:28;;;;;;;0.87;0.87;;;2.50;99.90;;;;;;4924908;29;20048;-73
2022/03/06 07:38:53;;;;;;;1.13;1.10;;;2.50;99.90;;;;;;4925363;29;20040;-74
2022/03/06 07:41:19;;;;;;;0.80;0.77;;;2.60;99.90;;;;;;4924510;29;20047;-74
2022/03/06 07:43:45;;;;;;;0.77;0.40;;;2.60;99.90;;;;;;4925393;29;20050;-75
2022/03/06 07:46:10;;;;;;;0.83;0.83;;;2.50;99.90;;;;;;4924649;28;20670;-74
2022/03/06 07:48:36;;;;;;;0.40;0.40;;;2.60;99.90;;;;;;4952544;28;20082;-74
2022/03/06 07:51:02;;;;;;;1.17;1.00;;;2.60;99.90;;;;;;4925286;29;20036;-74
2022/03/06 07:53:28;;;;;;;0.47;0.47;;;2.60;99.90;;;;;;4925585;29;20052;-73
2022/03/06 07:55:54;;;;;;;0.73;0.73;;;2.60;99.90;;;;;;4924412;29;20149;-74
2022/03/06 07:58:19;;;;;;;2.37;1.23;;;2.60;99.90;;;;;;4924711;29;20055;-74
2022/03/06 08:00:45;;;;;;;4.37;0.93;;;2.60;99.90;;;;;;4923889;29;20753;-74
2022/03/06 08:03:11;;;;;;;0.50;0.50;;;2.60;99.90;;;;;;4925154;29;20044;-73
2022/03/06 08:05:36;;;;;;;3.50;0.60;;;2.70;99.90;;;;;;4924803;29;20055;-73
2022/03/06 08:08:02;;;;;;;0.50;0.50;;;2.60;99.90;;;;;;4924802;29;20043;-73
2022/03/06 08:10:28;;;;;;;0.50;0.50;;;2.60;99.90;;;;;;4932681;29;20122;-73
2022/03/06 08:12:53;;;;;;;0.80;0.70;;;2.60;99.90;;;;;;4924954;29;20066;-74
2022/03/06 08:15:19;;;;;;;3.47;1.23;;;2.60;99.90;;;;;;4924233;29;20054;-74
2022/03/06 08:17:45;;;;;;;2.23;1.00;;;2.70;99.90;;;;;;4923793;29;20047;-75
2022/03/06 08:20:11;;;;;;;1.90;1.73;;;2.70;99.90;;;;;;4924615;29;20384;-74
2022/03/06 08:22:37;;;;;;;1.03;1.03;;;2.70;99.90;;;;;;4925349;29;20075;-74
2022/03/06 08:25:05;;;;;;;0.60;0.60;;;2.70;99.90;;;;;;4925085;29;20075;-73
2022/03/06 08:27:32;;;;;;;1.37;1.27;;;2.80;99.90;;;;;;4925573;29;20047;-73
2022/03/06 08:29:58;;;;;;;5.03;1.50;;;2.80;99.90;;;;;;4924828;29;20457;-73
2022/03/06 08:32:23;;;;;;;1.30;1.07;;;2.80;99.90;;;;;;4924726;29;20122;-74
2022/03/06 08:34:51;;;;;;;1.07;0.73;;;2.80;99.90;;;;;;4924095;29;20487;-74
2022/03/06 08:37:18;;;;;;;2.17;1.23;;;2.80;99.90;;;;;;4924836;29;20047;-73
2022/03/06 08:39:47;;;;;;;1.33;1.00;;;2.80;99.90;;;;;;4923596;29;20491;-74
2022/03/06 08:42:14;;;;;;;1.33;1.20;;;2.90;99.90;;;;;;4916478;29;20041;-74
2022/03/06 08:44:39;;;;;;;1.13;0.63;;;2.80;99.90;;;;;;4918205;29;20392;-74
2022/03/06 08:47:06;;;;;;;0.70;0.70;;;2.90;99.90;;;;;;4922045;29;20063;-75
2022/03/06 08:49:32;;;;;;;0.70;0.70;;;2.90;99.90;;;;;;4925232;29;20040;-75
2022/03/06 08:51:57;;;;;;;0.47;0.47;;;2.90;99.90;;;;;;4921262;29;20050;-75
2022/03/06 08:54:23;;;;;;;1.50;0.77;;;3.00;99.90;;;;;;4905905;29;20043;-75
2022/03/06 08:56:49;;;;;;;1.63;0.93;;;3.00;99.90;;;;;;4923032;29;20067;-75
2022/03/06 08:59:15;;;;;;;3.60;0.90;;;3.00;99.90;;;;;;4921352;29;20059;-77
2022/03/06 09:01:41;;;;;;;1.13;1.07;;;3.10;99.90;;;;;;4922175;29;20040;-75
2022/03/06 09:04:07;;;;;;;1.43;1.33;;;3.10;99.90;;;;;;4938396;29;20047;-75
2022/03/06 09:06:32;;;;;;;1.50;1.27;;;3.10;99.90;;;;;;4937432;28;20048;-73
2022/03/06 09:08:58;;;;;;;0.50;0.50;;;3.10;99.90;;;;;;4916716;29;20047;-73
2022/03/06 09:11:24;;;;;;;0.90;0.90;;;3.10;99.90;;;;;;4919571;29;20076;-73
2022/03/06 09:13:49;;;;;;;0.70;0.70;;;3.20;99.90;;;;;;4922890;29;20043;-73
2022/03/06 09:16:15;;;;;;;0.83;0.83;;;3.20;99.90;;;;;;4927505;29;20461;-73
2022/03/06 09:18:40;;;;;;;1.03;1.03;;;3.10;99.90;;;;;;4920520;28;20189;-73
2022/03/06 09:21:06;;;;;;;0.77;0.77;;;3.20;99.90;;;;;;4918200;29;20139;-74
2022/03/06 09:23:32;;;;;;;3.23;1.63;;;3.30;99.90;;;;;;4921380;29;20095;-73
2022/03/06 09:25:57;;;;;;;0.97;0.97;;;3.30;99.90;;;;;;4925732;29;20040;-75
2022/03/06 09:28:23;;;;;;;9.23;1.80;;;3.30;99.90;;;;;;4921262;28;20506;-75
2022/03/06 09:30:49;;;;;;;1.20;1.13;;;3.30;99.90;;;;;;4920108;29;20059;-75
2022/03/06 09:33:14;;;;;;;1.40;1.30;;;3.40;99.90;;;;;;4930048;28;20047;-75
2022/03/06 09:35:40;;;;;;;0.80;0.80;;;3.40;99.90;;;;;;4928475;29;20363;-74
2022/03/06 09:38:06;;;;;;;0.70;0.70;;;3.40;99.90;;;;;;4926881;29;20059;-74
2022/03/06 09:40:31;;;;;;;1.30;1.17;;;3.40;99.90;;;;;;4921012;29;20036;-74
2022/03/06 09:42:57;;;;;;;2.27;1.10;;;3.40;99.90;;;;;;4927442;29;20047;-75
2022/03/06 09:45:23;;;;;;;1.30;1.20;;;3.40;99.90;;;;;;4921565;29;20046;-75
2022/03/06 09:47:49;;;;;;;2.37;1.27;;;3.40;99.90;;;;;;4926644;29;20052;-75
2022/03/06 09:50:16;;;;;;;2.13;1.37;;;3.40;99.90;;;;;;4926919;29;20035;-75
2022/03/06 09:52:42;;;;;;;0.77;0.77;;;3.40;99.90;;;;;;4928317;29;20048;-74
2022/03/06 09:55:10;;;;;;;0.87;0.83;;;3.50;99.90;;;;;;4936488;28;20036;-74
2022/03/06 09:57:35;;;;;;;0.73;0.73;;;3.50;99.90;;;;;;4926418;29;20047;-74
2022/03/06 10:00:01;;;;;;;0.67;0.67;;;3.50;99.90;;;;;;4926938;29;20043;-75
2022/03/06 10:02:27;;;;;;;2.00;1.90;;;3.50;99.90;;;;;;4925454;29;20138;-73
2022/03/06 10:04:52;;;;;;;2.53;2.33;;;3.60;99.90;;;;;;4927553;29;20046;-75
2022/03/06 10:07:19;;;;;;;1.37;0.97;;;3.60;99.90;;;;;;4925868;29;20055;-73
2022/03/06 10:09:51;;;;;;;0.83;0.83;;;3.60;99.90;;;;;;4907228;29;20139;-74
2022/03/06 10:12:23;;;;;;;1.60;1.50;;;3.60;99.90;;;;;;4922186;29;20474;-75
2022/03/06 10:14:51;;;;;;;1.13;1.13;;;3.70;99.90;;;;;;4924838;29;20103;-75
2022/03/06 10:17:19;;;;;;;4.00;0.80;;;3.70;99.90;;;;;;4917175;29;20043;-75
2022/03/06 10:19:52;;;;;;;2.27;1.10;;;3.70;99.90;;;;;;4909261;29;20275;-75
2022/03/06 10:22:18;;;;;;;;;;;3.80;99.90;;;;;;4927435;29;20050;-75
2022/03/06 10:24:52;;;;;;;2.23;1.47;;;3.70;99.90;;;;;;4927383;29;19969;-74
2022/03/06 10:27:59;;;;;;;3.47;1.17;;;3.80;99.90;;;;;;4923709;29;20176;-75
2022/03/06 10:30:38;;;;;;;1.43;1.33;;;3.80;99.90;;;;;;4926156;29;20040;-74
2022/03/06 10:33:10;;;;;;;0.63;0.57;;;3.80;99.90;;;;;;4925538;29;20256;-75
2022/03/06 10:35:41;;;;;;;1.58;1.48;;;3.80;99.90;;;;;;4927438;29;20043;-75
2022/03/06 10:38:28;;;;;;;6.03;2.07;;;3.80;99.90;;;;;;4925941;29;20086;-75
2022/03/06 10:40:55;;;;;;;0.93;0.87;;;3.80;99.90;;;;;;4923852;29;20047;-78
2022/03/06 10:43:29;;;;;;;2.20;0.80;;;3.90;99.90;;;;;;4909023;29;20044;-78
2022/03/06 10:46:27;;;;;;;1.27;1.13;;;3.90;99.90;;;;;;4923480;29;20051;-78
2022/03/06 10:48:56;;;;;;;0.67;0.67;;;3.90;99.90;;;;;;4898501;29;20071;-78
2022/03/06 10:51:21;;;;;;;0.70;0.70;;;4.00;99.90;;;;;;4927030;29;20051;-78
2022/03/06 10:53:58;;;;;;;1.20;1.10;;;4.00;99.90;;;;;;4925806;29;20482;-79
2022/03/06 10:56:25;;;;;;;1.97;1.17;;;4.00;99.90;;;;;;4925149;29;20044;-78
2022/03/06 10:58:50;;;;;;;1.50;1.40;;;4.10;99.90;;;;;;4919282;29;20248;-79
2022/03/06 11:01:17;;;;;;;2.03;1.07;;;4.10;99.90;;;;;;4922596;29;20039;-78
2022/03/06 11:03:43;;;;;;;0.97;0.97;;;4.20;99.90;;;;;;4917842;29;20055;-80
2022/03/06 11:06:10;;;;;;;1.07;0.80;;;4.20;99.90;;;;;;4926238;29;20800;-79
2022/03/06 11:08:38;;;;;;;0.80;0.80;;;4.20;99.90;;;;;;4924263;29;20071;-77
2022/03/06 11:11:08;;;;;;;0.97;0.87;;;4.40;99.90;;;;;;4923940;29;20466;-78
2022/03/06 11:13:34;;;;;;;1.73;1.10;;;4.40;99.90;;;;;;4922919;29;20056;-78
2022/03/06 11:16:01;;;;;;;1.03;1.03;;;4.40;99.90;;;;;;4922316;29;20044;-78
2022/03/06 11:18:28;;;;;;;1.13;1.03;;;4.40;99.90;;;;;;4922215;29;20043;-80
2022/03/06 11:20:56;;;;;;;1.70;1.50;;;4.40;99.90;;;;;;4920159;29;20483;-79
2022/03/06 11:23:31;;;;;;;1.63;1.53;;;4.50;99.90;;;;;;4925456;29;20507;-77
2022/03/06 11:26:09;;;;;;;1.13;1.03;;;4.50;99.90;;;;;;4923655;29;20040;-77
2022/03/06 11:29:09;;;;;;;3.20;1.37;;;4.60;99.90;;;;;;4924596;29;20519;-78
2022/03/06 11:31:46;;;;;;;5.83;1.63;;;4.60;99.90;;;;;;4922441;29;20502;-79
2022/03/06 11:34:26;;;;;;;0.83;0.80;;;4.60;99.90;;;;;;4923770;29;20047;-77
2022/03/06 11:36:53;;;;;;;1.83;0.70;;;4.60;99.90;;;;;;4923580;29;20391;-77
2022/03/06 11:39:31;;;;;;;1.63;1.53;;;4.70;99.90;;;;;;4923152;29;20059;-76
2022/03/06 11:42:05;;;;;;;3.20;2.30;;;4.80;99.90;;;;;;4924005;29;20068;-77
2022/03/06 11:44:37;;;;;;;1.37;1.20;;;4.80;99.90;;;;;;4922010;29;20116;-79
2022/03/06 11:47:18;;;;;;;0.98;0.65;;;4.80;99.90;;;;;;4922803;29;20047;-79
2022/03/06 11:50:01;;;;;;;1.95;1.20;;;4.90;99.90;;;;;;4915555;29;20066;-78
2022/03/06 11:52:42;;;;;;;1.30;1.23;;;5.00;99.90;;;;;;4921717;29;20048;-75
2022/03/06 11:55:33;;;;;;;1.77;1.10;;;5.00;99.90;;;;;;4922208;29;20044;-74
2022/03/06 11:57:59;;;;;;;1.48;1.38;;;5.00;99.90;;;;;;4915121;29;20051;-76
2022/03/06 12:00:30;;;;;;;1.27;1.08;;;5.10;99.90;;;;;;4925017;29;20194;-80
2022/03/06 12:02:57;;;;;;;1.05;1.05;;;5.10;99.90;;;;;;4908361;29;20040;-78
2022/03/06 12:05:47;;;;;;;2.15;1.52;;;5.10;99.90;;;;;;4916032;29;20410;-79
2022/03/06 12:08:14;;;;;;;1.33;1.23;;;5.10;99.90;;;;;;4924112;29;20130;-81
2022/03/06 12:10:41;;;;;;;0.85;0.82;;;5.10;99.90;;;;;;4938472;29;20570;-82
2022/03/06 12:13:16;;;;;;;1.15;1.05;;;5.10;99.90;;;;;;4924637;29;20582;-81
2022/03/06 12:15:41;;;;;;;1.02;1.00;;;5.10;99.90;;;;;;4923969;29;20526;-79
2022/03/06 12:18:16;;;;;;;1.50;1.50;;;5.10;99.90;;;;;;4920084;29;20111;-81
2022/03/06 12:20:43;;;;;;;1.88;1.35;;;5.10;99.90;;;;;;4923349;29;20142;-79
2022/03/06 12:23:21;;;;;;;2.42;1.23;;;5.10;99.90;;;;;;4922128;29;20047;-77
2022/03/06 12:25:53;;;;;;;1.70;1.02;;;5.10;99.90;;;;;;4921536;29;20054;-77
2022/03/06 12:28:20;;;;;;;1.65;1.45;;;5.20;99.90;;;;;;4925331;29;20168;-79
2022/03/06 12:30:47;;;;;;;8.90;1.80;;;5.20;99.90;;;;;;4922461;29;20094;-79
2022/03/06 12:33:30;;;;;;;1.60;1.50;;;5.30;99.90;;;;;;4924584;29;20103;-77
2022/03/06 12:36:16;;;;;;;1.35;1.35;;;5.30;99.90;;;;;;4918089;29;20054;-79
2022/03/06 12:38:42;;;;;;;1.50;1.40;;;5.20;99.90;;;;;;4925499;29;20047;-79
2022/03/06 12:41:08;;;;;;;5.00;1.73;;;5.20;99.90;;;;;;4921695;29;20111;-76
2022/03/06 12:43:43;;;;;;;1.17;0.77;;;5.30;99.90;;;;;;4924407;29;20043;-80
2022/03/06 12:46:08;;;;;;;1.40;1.30;;;5.30;99.90;;;;;;4922474;29;20442;-81
2022/03/06 12:48:34;;;;;;;2.85;1.00;;;5.30;99.90;;;;;;4921889;29;20047;-86
2022/03/06 12:51:00;;;;;;;3.28;1.75;;;5.30;99.90;;;;;;4921950;29;20048;-79
2022/03/06 12:53:25;;;;;;;1.23;1.13;;;5.30;99.90;;;;;;4924227;29;20040;-80
2022/03/06 12:55:58;;;;;;;3.47;0.80;;;5.30;99.90;;;;;;4921083;29;20126;-79
2022/03/06 12:58:44;;;;;;;1.55;1.45;;;5.30;99.90;;;;;;4920630;29;20099;-83